Date,TemperatureHighF,TemperatureAvgF,TemperatureLowF,DewpointHighF,DewpointAvgF,DewpointLowF,HumidityHigh,HumidityAvg,HumidityLow,PressureMaxIn,PressureMinIn,WindSpeedMaxMPH,WindSpeedAvgMPH,GustSpeedMaxMPH,PrecipitationSumIn
2013-2-1,32,23,18,24,5,0,76,47,33,30.32,30.01,11,3,21,0.12
2013-2-2,41,34,19,26,15,5,66,45,30,30.33,30.09,3,0,7,0.00
2013-2-3,42,34,30,31,25,20,91,70,44,30.05,29.93,12,2,24,0.00
2013-2-4,51,36,25,23,18,14,71,51,27,30.15,30.02,4,1,10,0.00
2013-2-5,55,46,34,36,30,21,69,53,42,30.07,29.98,4,1,8,0.00
2013-2-6,57,48,39,29,19,11,69,34,17,30.28,30.07,7,1,11,0.00
2013-2-7,43,40,38,40,32,18,97,75,40,30.28,30.06,5,1,11,0.43
2013-2-8,48,41,32,40,33,26,98,75,51,30.18,29.98,11,2,23,0.45
2013-2-9,53,39,27,26,19,-1,81,52,12,30.35,30.16,8,1,19,0.00
2013-2-10,50,44,39,40,27,17,94,55,29,30.42,30.12,4,1,8,0.26
2013-2-11,57,52,47,54,42,16,99,73,27,30.17,30.07,6,1,11,0.32
2013-2-12,51,44,37,35,22,14,86,45,24,30.18,29.98,5,1,10,0.40
2013-2-13,48,40,34,44,36,27,98,86,68,29.96,29.72,11,2,20,0.60
2013-2-14,52,41,29,30,25,21,79,55,32,30.10,29.96,5,1,11,0.00
2013-2-15,56,40,29,34,28,22,84,65,28,30.15,30.00,7,1,15,0.00
2013-2-16,35,28,20,25,16,7,86,61,40,30.05,27.19,11,3,26,0.00
2013-2-17,32,28,21,8,5,0,56,37,27,30.25,30.01,11,3,33,0.00
2013-2-18,52,38,20,21,16,6,62,43,25,30.35,30.20,5,0,8,0.00
2013-2-19,53,43,33,41,24,8,93,51,24,30.21,29.92,8,2,17,0.07
2013-2-20,47,37,28,11,-6,-16,39,17,10,30.18,30.09,10,2,18,0.00
2013-2-21,61,46,25,32,11,-5,84,31,10,30.26,30.11,4,1,7,0.20
2013-2-22,40,37,33,39,35,31,96,92,83,30.27,30.12,2,0,6,0.22
2013-2-23,54,48,38,49,44,36,96,85,79,30.13,29.91,2,0,4,0.38
2013-2-24,57,48,40,44,19,10,93,33,16,30.11,29.93,7,2,13,0.38
2013-2-25,47,39,32,27,24,18,81,55,41,30.18,30.06,7,1,16,0.38
2013-2-26,40,38,32,39,37,30,99,97,94,29.93,26.99,4,1,7,0.93
2013-2-27,57,43,34,37,31,25,97,64,36,29.86,29.71,7,1,13,0.93
2013-2-28,40,34,30,33,23,20,80,63,49,29.96,29.82,8,3,17,0.00